Terminal Aerodrome Forecast
Issued by NWS

Home | Current Version | Previous Version | Graphics & Text | Print | Product List | Glossary On
Versions: 1 2 3 4 5 6 7 8 9 10 11 12 13 14 15 16 17 18
185
FTUS43 KBIS 061126
TAFJMS
TAF
KJMS 061126Z 0612/0712 24012KT P6SM BKN120
     FM061700 24013KT P6SM BKN130 WS020/28035KT
     FM062100 25019G27KT P6SM SCT070 BKN100 WS020/29045KT
     FM070300 27025G35KT P6SM BKN090
     FM070600 29029G40KT 5SM -SN BLSN OVC050=

USA.gov is the U.S. government's official web portal to all federal, state and local government web resources and services.